createdAt,value
2018-09-08T00:02:00.928Z,10.95
2018-09-08T00:04:28.867Z,11.23
2018-09-08T00:06:57.667Z,11.10
2018-09-08T00:09:25.671Z,11.68
2018-09-08T00:11:52.714Z,13.48
2018-09-08T00:14:19.767Z,13.25
2018-09-08T00:16:52.748Z,13.13
2018-09-08T00:19:25.487Z,11.18
2018-09-08T00:22:01.432Z,11.52
2018-09-08T00:24:34.115Z,13.32
2018-09-08T00:27:00.756Z,12.18
2018-09-08T00:29:28.516Z,14.90
2018-09-08T00:31:56.793Z,11.55
2018-09-08T00:34:24.466Z,13.57
2018-09-08T00:36:53.131Z,10.73
2018-09-08T00:39:20.196Z,11.43
2018-09-08T00:41:47.241Z,11.12
2018-09-08T00:44:14.296Z,11.38
2018-09-08T00:49:22.928Z,10.98
2018-09-08T00:51:51.615Z,11.93
2018-09-08T00:54:18.664Z,13.10
2018-09-08T00:56:45.743Z,14.55
2018-09-08T00:59:12.761Z,12.35
2018-09-08T01:01:39.912Z,12.30
2018-09-08T01:04:06.962Z,16.55
2018-09-08T01:06:34.015Z,13.88
2018-09-08T01:09:02.287Z,12.80
2018-09-08T01:11:29.336Z,12.75
2018-09-08T01:13:56.389Z,11.85
2018-09-08T01:16:23.986Z,12.10
2018-09-08T01:18:51.037Z,12.52
2018-09-08T01:21:18.079Z,15.23
2018-09-08T01:23:46.051Z,11.95
2018-09-08T01:26:13.205Z,12.32
2018-09-08T01:28:40.256Z,15.55
2018-09-08T01:31:07.716Z,11.55
2018-09-08T01:33:34.756Z,11.20
2018-09-08T01:36:01.906Z,12.80
2018-09-08T01:38:29.875Z,11.20
2018-09-08T01:40:56.930Z,10.68
2018-09-08T01:43:23.974Z,13.25
2018-09-08T01:45:52.967Z,15.45
2018-09-08T01:48:20.015Z,9.68
2018-09-08T01:50:47.169Z,10.43
2018-09-08T01:53:14.793Z,10.13
2018-09-08T01:55:41.879Z,8.95
2018-09-08T01:58:08.935Z,9.40
2018-09-08T02:00:35.982Z,11.07
2018-09-08T02:03:03.311Z,9.10
2018-09-08T02:05:30.355Z,8.85
2018-09-08T02:07:57.437Z,13.27
2018-09-08T02:10:24.685Z,10.80
2018-09-08T02:12:51.736Z,10.77
2018-09-08T02:15:18.756Z,9.35
2018-09-08T02:17:45.829Z,9.30
2018-09-08T02:20:12.883Z,9.93
2018-09-08T02:22:39.926Z,8.68
2018-09-08T02:25:06.978Z,10.75
2018-09-08T02:27:34.029Z,9.15
2018-09-08T02:30:01.073Z,7.85
2018-09-08T02:32:28.121Z,11.05
2018-09-08T02:34:55.174Z,9.73
2018-09-08T02:37:22.218Z,7.25
2018-09-08T02:39:49.270Z,10.32
2018-09-08T02:42:16.320Z,7.45
2018-09-08T02:44:43.330Z,7.00
2018-09-08T02:47:10.414Z,8.68
2018-09-08T02:49:37.467Z,7.10
2018-09-08T02:52:04.311Z,8.50
2018-09-08T02:54:31.155Z,6.72
2018-09-08T02:56:57.999Z,7.07
2018-09-08T02:59:24.841Z,7.90
2018-09-08T03:01:52.193Z,9.80
2018-09-08T03:04:19.036Z,7.57
2018-09-08T03:06:45.880Z,6.53
2018-09-08T03:09:12.724Z,6.32
2018-09-08T03:11:39.568Z,6.35
2018-09-08T03:14:21.504Z,7.18
2018-09-08T03:16:55.996Z,7.00
2018-09-08T03:19:22.831Z,7.78
2018-09-08T03:21:49.783Z,5.82
2018-09-08T03:24:16.628Z,5.37
2018-09-08T03:26:43.441Z,7.47
2018-09-08T03:29:10.209Z,6.47
2018-09-08T03:31:38.280Z,6.75
2018-09-08T03:34:05.232Z,5.90
2018-09-08T03:36:32.077Z,10.68
2018-09-08T03:38:58.879Z,7.07
2018-09-08T03:41:25.763Z,6.10
2018-09-08T03:43:52.614Z,7.30
2018-09-08T03:46:19.451Z,6.12
2018-09-08T03:48:46.294Z,6.05
2018-09-08T03:51:13.142Z,5.70
2018-09-08T03:53:39.981Z,6.95
2018-09-08T03:56:06.827Z,6.47
2018-09-08T03:58:33.669Z,7.05
2018-09-08T04:01:00.515Z,9.98
2018-09-08T04:03:27.556Z,7.80
2018-09-08T04:05:54.605Z,7.72
2018-09-08T04:08:21.660Z,7.12
2018-09-08T04:10:48.676Z,8.48
2018-09-08T04:13:15.859Z,6.78
2018-09-08T04:15:42.905Z,8.57
2018-09-08T04:18:10.947Z,5.95
2018-09-08T04:20:38.954Z,6.00
2018-09-08T04:23:05.994Z,5.40
2018-09-08T04:25:35.405Z,5.78
2018-09-08T04:28:05.110Z,6.35
2018-09-08T04:30:32.260Z,6.35
2018-09-08T04:32:59.313Z,7.95
2018-09-08T04:35:26.357Z,9.43
2018-09-08T04:37:53.406Z,6.10
2018-09-08T04:40:20.460Z,6.70
2018-09-08T04:42:47.503Z,7.82
2018-09-08T04:45:15.883Z,6.20
2018-09-08T04:47:43.035Z,6.40
2018-09-08T04:50:10.083Z,10.48
2018-09-08T04:52:38.058Z,7.47
2018-09-08T04:55:25.623Z,6.60
2018-09-08T04:58:13.538Z,7.53
2018-09-08T05:00:40.569Z,7.45
2018-09-08T05:03:07.618Z,11.30
2018-09-08T05:05:34.674Z,8.43
2018-09-08T05:08:01.716Z,7.70
2018-09-08T05:10:28.766Z,7.57
2018-09-08T05:12:55.818Z,7.60
2018-09-08T05:15:22.863Z,9.57
2018-09-08T05:17:49.909Z,6.32
2018-09-08T05:20:16.965Z,9.45
2018-09-08T05:22:44.730Z,10.00
2018-09-08T05:25:11.775Z,9.02
2018-09-08T05:27:38.923Z,7.20
2018-09-08T05:30:06.181Z,7.90
2018-09-08T05:32:35.342Z,10.15
2018-09-08T05:35:03.414Z,10.23
2018-09-08T05:37:30.399Z,7.00
2018-09-08T05:39:57.444Z,7.00
2018-09-08T05:42:24.491Z,7.70
2018-09-08T05:45:08.225Z,6.87
2018-09-08T05:47:57.423Z,7.20
2018-09-08T05:50:41.142Z,8.18
2018-09-08T05:53:08.909Z,8.60
2018-09-08T05:55:36.158Z,6.50
2018-09-08T05:58:03.216Z,7.05
2018-09-08T06:00:30.868Z,8.85
2018-09-08T06:02:57.918Z,7.45
2018-09-08T06:05:24.974Z,6.85
2018-09-08T06:07:52.015Z,7.55
2018-09-08T06:10:19.109Z,6.55
2018-09-08T06:12:46.214Z,6.10
2018-09-08T06:15:13.268Z,11.60
2018-09-08T06:17:40.313Z,6.95
2018-09-08T06:20:07.363Z,6.30
2018-09-08T06:22:34.513Z,6.20
2018-09-08T06:25:01.537Z,10.15
2018-09-08T06:27:28.610Z,8.63
2018-09-08T06:29:55.658Z,11.02
2018-09-08T06:32:23.547Z,5.43
2018-09-08T06:34:51.601Z,5.57
2018-09-08T06:37:19.779Z,8.20
2018-09-08T06:39:46.932Z,5.85
2018-09-08T06:42:14.142Z,9.88
2018-09-08T06:44:41.546Z,7.10
2018-09-08T06:47:08.582Z,6.22
2018-09-08T06:49:35.733Z,5.55
2018-09-08T06:52:02.888Z,8.07
2018-09-08T06:54:29.933Z,6.37
2018-09-08T06:56:57.699Z,7.75
2018-09-08T06:59:25.773Z,7.10
2018-09-08T07:01:52.825Z,6.80
2018-09-08T07:04:19.873Z,7.47
2018-09-08T07:06:52.354Z,5.22
2018-09-08T07:09:19.808Z,6.07
2018-09-08T07:11:46.853Z,5.68
2018-09-08T07:14:14.007Z,7.65
2018-09-08T07:16:42.083Z,6.30
2018-09-08T07:19:09.122Z,11.82
2018-09-08T07:21:36.180Z,8.50
2018-09-08T07:24:23.414Z,5.60
2018-09-08T07:27:01.201Z,7.50
2018-09-08T07:29:28.350Z,5.85
2018-09-08T07:31:55.502Z,8.38
2018-09-08T07:34:22.654Z,6.75
2018-09-08T07:36:49.803Z,5.47
2018-09-08T07:39:17.053Z,5.82
2018-09-08T07:41:44.204Z,5.93
2018-09-08T07:44:11.277Z,5.72
2018-09-08T07:46:38.408Z,10.13
2018-09-08T07:49:05.452Z,5.53
2018-09-08T07:51:32.500Z,8.30
2018-09-08T07:53:59.669Z,5.82
2018-09-08T07:56:26.958Z,8.18
2018-09-08T07:58:54.009Z,6.12
2018-09-08T08:01:21.161Z,9.50
2018-09-08T08:03:48.208Z,7.93
2018-09-08T08:06:15.255Z,6.87
2018-09-08T08:08:42.305Z,6.60
2018-09-08T08:11:09.458Z,6.62
2018-09-08T08:13:36.610Z,6.68
2018-09-08T08:16:03.828Z,6.10
2018-09-08T08:18:31.006Z,9.90
2018-09-08T08:20:58.060Z,8.48
2018-09-08T08:23:25.102Z,6.90
2018-09-08T08:25:52.155Z,7.95
2018-09-08T08:28:19.305Z,5.97
2018-09-08T08:30:46.355Z,6.22
2018-09-08T08:33:13.709Z,5.95
2018-09-08T08:35:58.893Z,6.40
2018-09-08T08:38:25.933Z,5.93
2018-09-08T08:40:54.104Z,4.72
2018-09-08T08:43:21.612Z,5.40
2018-09-08T08:45:48.816Z,7.40
2018-09-08T08:48:18.505Z,4.35
2018-09-08T08:50:51.524Z,7.53
2018-09-08T08:53:30.441Z,5.10
2018-09-08T08:55:57.498Z,9.25
2018-09-08T08:58:24.538Z,5.22
2018-09-08T09:00:52.000Z,5.45
2018-09-08T09:03:38.735Z,6.22
2018-09-08T09:06:05.933Z,6.87
2018-09-08T09:08:33.350Z,6.87
2018-09-08T09:11:00.063Z,5.45
2018-09-08T09:13:27.150Z,8.05
2018-09-08T09:15:54.257Z,5.50
2018-09-08T09:18:21.730Z,5.35
2018-09-08T09:20:57.468Z,7.10
2018-09-08T09:23:24.842Z,6.43
2018-09-08T09:25:51.879Z,5.55
2018-09-08T09:28:18.922Z,6.53
2018-09-08T09:30:45.970Z,6.00
2018-09-08T09:33:13.121Z,5.70
2018-09-08T09:35:40.272Z,5.62
2018-09-08T09:38:07.326Z,5.68
2018-09-08T09:40:34.368Z,4.90
2018-09-08T09:43:01.521Z,4.82
2018-09-08T09:45:28.571Z,5.45
2018-09-08T09:47:55.825Z,5.53
2018-09-08T09:50:22.872Z,5.57
2018-09-08T09:52:49.924Z,5.82
2018-09-08T09:55:17.077Z,8.60
2018-09-08T09:57:44.324Z,5.47
2018-09-08T10:00:12.277Z,6.40
2018-09-08T10:02:39.341Z,5.30
2018-09-08T10:05:06.494Z,5.85
2018-09-08T10:07:34.874Z,7.05
2018-09-08T10:10:01.921Z,5.05
2018-09-08T10:12:47.576Z,4.30
2018-09-08T10:15:16.998Z,4.37
2018-09-08T10:17:44.785Z,5.10
2018-09-08T10:20:12.439Z,4.93
2018-09-08T10:22:39.698Z,4.65
2018-09-08T10:25:06.848Z,4.85
2018-09-08T10:27:33.894Z,4.90
2018-09-08T10:30:01.515Z,7.55
2018-09-08T10:32:28.193Z,5.10
2018-09-08T10:34:55.268Z,4.80
2018-09-08T10:37:23.417Z,4.97
2018-09-08T10:39:50.638Z,4.55
2018-09-08T10:42:17.690Z,4.85
2018-09-08T10:44:44.768Z,4.35
2018-09-08T10:47:11.822Z,4.97
2018-09-08T10:49:38.983Z,4.53
2018-09-08T10:52:06.227Z,5.32
2018-09-08T10:54:33.281Z,4.97
2018-09-08T10:57:01.533Z,6.40
2018-09-08T10:59:28.599Z,5.50
2018-09-08T11:01:56.070Z,7.22
2018-09-08T11:04:23.001Z,4.95
2018-09-08T11:06:50.154Z,4.37
2018-09-08T11:09:17.304Z,5.40
2018-09-08T11:11:44.454Z,7.45
2018-09-08T11:14:11.913Z,4.70
2018-09-08T11:16:38.960Z,4.93
2018-09-08T11:19:06.016Z,4.57
2018-09-08T11:21:34.872Z,4.87
2018-09-08T11:24:01.949Z,6.43
2018-09-08T11:26:29.113Z,5.07
2018-09-08T11:28:56.159Z,4.57
2018-09-08T11:31:23.202Z,6.70
2018-09-08T11:33:50.247Z,4.65
2018-09-08T11:36:17.779Z,4.95
2018-09-08T11:38:44.859Z,4.78
2018-09-08T11:41:11.910Z,5.05
2018-09-08T11:43:39.676Z,4.80
2018-09-08T11:46:07.951Z,5.53
2018-09-08T11:48:35.713Z,4.43
2018-09-08T11:51:02.765Z,7.97
2018-09-08T11:53:33.649Z,4.45
2018-09-08T11:56:00.749Z,4.32
2018-09-08T11:58:27.899Z,4.00
2018-09-08T12:00:55.051Z,4.50
2018-09-08T12:03:22.202Z,4.97
2018-09-08T12:05:49.258Z,4.68
2018-09-08T12:08:16.503Z,4.25
2018-09-08T12:10:43.661Z,4.18
2018-09-08T12:13:10.805Z,4.40
2018-09-08T12:15:38.168Z,4.37
2018-09-08T12:18:05.318Z,6.18
2018-09-08T12:20:32.667Z,4.97
2018-09-08T12:22:59.717Z,4.40
2018-09-08T12:25:26.971Z,5.05
2018-09-08T12:27:54.228Z,6.25
2018-09-08T12:30:21.388Z,4.22
2018-09-08T12:32:48.629Z,4.28
2018-09-08T12:35:15.778Z,4.25
2018-09-08T12:37:42.832Z,4.10
2018-09-08T12:40:09.878Z,4.10
2018-09-08T12:42:37.539Z,4.40
2018-09-08T12:45:04.633Z,5.50
2018-09-08T12:47:31.743Z,4.50
2018-09-08T12:50:09.232Z,4.15
2018-09-08T12:52:43.653Z,4.45
2018-09-08T12:57:56.290Z,4.40
2018-09-08T13:00:46.371Z,4.53
2018-09-08T13:03:19.668Z,3.90
2018-09-08T13:05:49.001Z,4.32
2018-09-08T13:08:38.040Z,4.47
2018-09-08T13:11:05.595Z,4.62
2018-09-08T13:13:33.053Z,4.40
2018-09-08T13:16:00.206Z,4.00
2018-09-08T13:18:27.355Z,4.55
2018-09-08T13:20:54.410Z,5.97
2018-09-08T13:23:21.453Z,4.03
2018-09-08T13:25:48.500Z,4.15
2018-09-08T13:28:15.555Z,4.12
2018-09-08T13:30:44.108Z,3.95
2018-09-08T13:33:11.182Z,4.53
2018-09-08T13:38:49.484Z,4.80
2018-09-08T13:41:16.873Z,4.45
2018-09-08T13:46:30.021Z,4.40
2018-09-08T13:48:57.173Z,4.37
2018-09-08T13:51:24.319Z,6.80
2018-09-08T13:53:51.677Z,4.60
2018-09-08T13:56:18.731Z,4.95
2018-09-08T13:58:45.880Z,5.37
2018-09-08T14:01:12.922Z,5.00
2018-09-08T14:03:39.972Z,5.57
2018-09-08T14:06:07.121Z,4.25
2018-09-08T14:16:51.022Z,5.35
2018-09-08T14:19:18.384Z,5.30
2018-09-08T14:21:45.427Z,5.35
2018-09-08T14:24:12.476Z,5.07
2018-09-08T14:26:39.530Z,5.12
2018-09-08T14:29:06.777Z,5.30
2018-09-08T14:31:33.928Z,6.18
2018-09-08T14:37:05.959Z,6.62
2018-09-08T14:39:33.166Z,5.55
2018-09-08T14:42:00.668Z,5.72
2018-09-08T14:44:45.503Z,5.37
2018-09-08T14:47:31.434Z,6.28
2018-09-08T14:49:58.636Z,5.03
2018-09-08T14:52:28.546Z,5.65
2018-09-08T14:54:55.706Z,4.80
2018-09-08T14:57:23.062Z,5.68
2018-09-08T14:59:50.026Z,5.68
2018-09-08T15:02:17.057Z,4.97
2018-09-08T15:04:44.336Z,5.03
2018-09-08T15:07:11.559Z,4.60
2018-09-08T15:09:38.608Z,4.70
2018-09-08T15:12:05.758Z,6.40
2018-09-08T15:14:34.042Z,5.05
2018-09-08T15:17:01.288Z,6.20
2018-09-08T15:19:28.964Z,6.55
2018-09-08T15:21:56.311Z,5.07
2018-09-08T15:24:24.073Z,4.30
2018-09-08T15:27:05.306Z,4.87
2018-09-08T15:29:35.578Z,4.57
2018-09-08T15:32:02.729Z,4.22
2018-09-08T15:34:29.776Z,4.10
2018-09-08T15:36:58.466Z,4.28
2018-09-08T15:39:25.519Z,5.87
2018-09-08T15:41:52.767Z,4.10
2018-09-08T15:44:19.821Z,4.20
2018-09-08T15:46:46.864Z,4.15
2018-09-08T15:49:15.139Z,4.72
2018-09-08T15:51:42.196Z,4.47
2018-09-08T15:54:10.252Z,4.50
2018-09-08T15:59:41.581Z,5.22
2018-09-08T16:02:08.785Z,5.43
2018-09-08T16:04:35.834Z,4.53
2018-09-08T16:07:05.871Z,4.62
2018-09-08T16:09:35.261Z,4.85
2018-09-08T16:12:02.416Z,4.80
2018-09-08T16:14:34.113Z,4.75
2018-09-08T16:17:12.273Z,7.00
2018-09-08T16:19:39.322Z,5.25
2018-09-08T17:29:06.349Z,8.63
2018-09-08T17:31:33.399Z,7.35
2018-09-08T17:34:03.449Z,5.40
2018-09-08T17:36:30.571Z,7.82
2018-09-08T17:38:57.728Z,6.85
2018-09-08T17:41:25.141Z,6.30
2018-09-08T17:43:56.119Z,6.80
2018-09-08T17:46:23.163Z,8.50
2018-09-08T17:48:50.210Z,7.68
2018-09-08T17:51:17.299Z,7.85
2018-09-08T17:56:48.016Z,7.25
2018-09-08T17:59:15.168Z,7.03
2018-09-08T18:01:42.998Z,15.15
2018-09-08T18:04:10.089Z,9.38
2018-09-08T18:06:37.135Z,7.00
2018-09-08T18:09:04.592Z,8.60
2018-09-08T18:11:31.644Z,8.20
2018-09-08T18:13:58.688Z,8.05
2018-09-08T18:16:25.949Z,8.15
2018-09-08T18:18:52.991Z,8.80
2018-09-08T18:21:20.039Z,11.48
2018-09-08T18:23:47.094Z,7.35
2018-09-08T18:26:14.136Z,6.55
2018-09-08T18:28:41.288Z,10.93
2018-09-08T18:31:08.411Z,10.02
2018-09-08T18:33:35.487Z,6.93
2018-09-08T18:36:02.540Z,12.13
2018-09-08T18:38:29.589Z,10.52
2018-09-08T18:40:56.845Z,8.93
2018-09-08T18:43:23.994Z,9.48
2018-09-08T18:46:13.488Z,8.40
2018-09-08T18:48:40.512Z,11.15
2018-09-08T18:51:07.571Z,11.00
2018-09-08T18:53:34.609Z,11.57
2018-09-08T18:56:01.658Z,7.95
2018-09-08T18:58:29.019Z,9.25
2018-09-08T19:00:57.091Z,10.50
2018-09-08T19:03:24.147Z,17.17
2018-09-08T19:05:51.284Z,9.80
2018-09-08T19:08:19.160Z,9.48
2018-09-08T19:10:46.204Z,10.05
2018-09-08T19:13:13.460Z,10.63
2018-09-08T19:15:40.810Z,11.35
2018-09-08T19:18:07.860Z,9.85
2018-09-08T19:20:34.871Z,11.73
2018-09-08T19:23:02.469Z,12.13
2018-09-08T19:25:29.722Z,14.60
2018-09-08T19:27:56.873Z,11.05
2018-09-08T19:30:23.895Z,10.35
2018-09-08T19:32:51.487Z,9.30
2018-09-08T19:35:18.706Z,10.65
2018-09-08T19:37:46.099Z,13.43
2018-09-08T19:40:13.117Z,10.45
2018-09-08T19:42:40.321Z,19.65
2018-09-08T19:45:08.064Z,13.60
2018-09-08T19:47:40.950Z,15.90
2018-09-08T19:50:07.967Z,11.57
2018-09-08T19:52:35.147Z,12.40
2018-09-08T19:55:02.327Z,15.65
2018-09-08T19:57:29.449Z,13.45
2018-09-08T19:59:56.766Z,18.85
2018-09-08T20:02:41.604Z,17.27
2018-09-08T20:05:09.330Z,22.23
2018-09-08T20:07:36.379Z,18.05
2018-09-08T20:10:03.432Z,14.00
2018-09-08T20:12:30.477Z,13.18
2018-09-08T20:14:57.628Z,11.60
2018-09-08T20:17:24.677Z,11.35
2018-09-08T20:19:51.866Z,13.90
2018-09-08T20:22:18.880Z,13.48
2018-09-08T20:24:46.339Z,12.65
2018-09-08T20:27:13.490Z,12.57
2018-09-08T20:29:40.534Z,11.38
2018-09-08T20:32:26.535Z,12.55
2018-09-08T20:34:53.691Z,17.20
2018-09-08T20:37:20.726Z,11.05
2018-09-08T20:39:48.290Z,11.48
2018-09-08T20:42:15.442Z,10.95
2018-09-08T20:44:42.692Z,11.40
2018-09-08T20:47:09.845Z,12.95
2018-09-08T20:49:36.896Z,12.25
2018-09-08T20:52:03.937Z,11.52
2018-09-08T20:54:30.988Z,14.15
2018-09-08T20:56:58.040Z,13.40
2018-09-08T20:59:25.190Z,12.37
2018-09-08T21:01:52.237Z,13.45
2018-09-08T21:04:19.799Z,13.38
2018-09-08T21:06:47.668Z,11.35
2018-09-08T21:09:19.325Z,14.05
2018-09-08T21:11:47.467Z,12.93
2018-09-08T21:14:14.550Z,12.10
2018-09-08T21:16:42.809Z,14.98
2018-09-08T21:19:09.871Z,11.70
2018-09-08T21:24:38.376Z,11.25
2018-09-08T21:27:10.242Z,11.98
2018-09-08T21:29:37.393Z,15.45
2018-09-08T21:32:05.994Z,12.93
2018-09-08T21:34:33.020Z,12.10
2018-09-08T21:37:00.074Z,11.70
2018-09-08T21:39:27.428Z,11.50
2018-09-08T21:41:54.641Z,14.50
2018-09-08T21:44:21.728Z,11.55
2018-09-08T21:46:48.775Z,10.48
2018-09-08T21:49:15.830Z,11.45
2018-09-08T21:51:42.873Z,10.90
2018-09-08T21:54:09.922Z,10.20
2018-09-08T21:56:37.175Z,15.55
2018-09-08T21:59:04.345Z,15.65
2018-09-08T22:01:31.478Z,12.98
2018-09-08T22:03:58.524Z,10.65
2018-09-08T22:06:26.195Z,10.18
2018-09-08T22:08:53.245Z,9.85
2018-09-08T22:11:20.285Z,10.45
2018-09-08T22:13:47.438Z,12.73
2018-09-08T22:16:14.498Z,10.65
2018-09-08T22:18:41.534Z,11.15
2018-09-08T22:21:08.584Z,18.23
2018-09-08T22:23:35.637Z,12.93
2018-09-08T22:26:02.680Z,11.30
2018-09-08T22:28:29.735Z,11.10
2018-09-08T22:30:56.785Z,9.77
2018-09-08T22:33:25.875Z,10.25
2018-09-08T22:35:52.930Z,10.75
2018-09-08T22:38:19.975Z,11.55
2018-09-08T22:40:47.435Z,14.25
2018-09-08T22:43:14.479Z,14.82
2018-09-08T22:45:41.535Z,13.48
2018-09-08T22:48:08.994Z,10.95
2018-09-08T22:50:36.239Z,14.70
2018-09-08T22:53:03.292Z,12.95
2018-09-08T22:55:31.366Z,15.88
2018-09-08T22:57:58.408Z,13.27
2018-09-08T23:00:25.457Z,13.18
2018-09-08T23:02:52.510Z,14.15
2018-09-08T23:05:19.556Z,17.52
2018-09-08T23:07:46.604Z,15.15
2018-09-08T23:10:14.987Z,14.13
2018-09-08T23:12:42.038Z,13.93
2018-09-08T23:15:09.080Z,14.90
2018-09-08T23:17:36.130Z,16.37
2018-09-08T23:20:03.688Z,13.77
2018-09-08T23:22:30.738Z,12.07
2018-09-08T23:24:57.791Z,12.02
2018-09-08T23:27:24.836Z,11.75
2018-09-08T23:29:51.886Z,13.82
2018-09-08T23:32:18.936Z,12.48
2018-09-08T23:34:46.090Z,12.15
2018-09-08T23:37:13.133Z,19.12
2018-09-08T23:39:40.180Z,12.63
2018-09-08T23:42:07.639Z,19.45
2018-09-08T23:44:34.694Z,12.77
2018-09-08T23:47:01.711Z,15.65
2018-09-08T23:49:28.786Z,13.38
2018-09-08T23:51:57.547Z,11.65
2018-09-08T23:54:24.591Z,11.63
2018-09-08T23:56:51.985Z,13.90
2018-09-08T23:59:19.134Z,12.10
